CST,Max TemperatureF,Mean TemperatureF,Min TemperatureF,Max Dew PointF,MeanDew PointF,Min DewpointF,Max Humidity, Mean Humidity, Min Humidity, Max Sea Level PressureIn, Mean Sea Level PressureIn, Min Sea Level PressureIn, Max VisibilityMiles, Mean VisibilityMiles, Min VisibilityMiles, Max Wind SpeedMPH, Mean Wind SpeedMPH, Max Gust SpeedMPH,PrecipitationIn, CloudCover, Events, WindDirDegrees
2013-12-1,37,32,26,25,22,21,80,70,56,30.16,30.04,29.83,10,10,7,8,3,,0.00,2,,94
2013-12-2,48,38,28,30,28,25,86,68,46,29.81,29.60,29.50,10,9,7,13,5,17,0.00,3,,162
2013-12-3,39,34,28,30,29,27,93,85,70,29.71,29.62,29.53,10,6,1,14,7,18,0.00,7,Snow,21
2013-12-4,28,19,10,27,15,3,93,85,73,29.93,29.70,29.60,10,6,1,28,14,34,0.00,8,Snow,310
2013-12-5,10,2,-5,5,-3,-11,85,73,67,30.37,30.19,29.93,10,10,5,28,20,33,0.00,3,Snow,296
2013-12-6,1,-5,-11,-6,-12,-18,78,73,66,30.64,30.50,30.36,10,10,10,17,12,18,0.00,0,,303
2013-12-7,6,-4,-13,1,-10,-18,85,73,66,30.68,30.58,30.39,10,9,2,9,3,,0.00,2,Snow,337
2013-12-8,14,6,-2,9,4,-8,92,82,73,30.38,30.12,30.01,10,5,1,10,7,,0.00,7,Snow,140
2013-12-9,15,4,-7,7,-7,-15,85,72,61,30.20,30.08,29.86,10,10,4,22,12,28,0.00,1,Snow,256
2013-12-10,23,13,3,18,8,-2,93,76,63,30.26,30.06,29.84,10,8,2,33,14,41,0.00,5,Snow,273
2013-12-11,15,1,-13,12,-6,-18,86,71,61,30.58,30.45,30.28,10,10,3,16,10,25,0.00,1,Snow,277
2013-12-12,28,17,6,19,11,1,86,78,64,30.30,30.19,30.02,10,10,10,14,7,20,0.04,1,,197
2013-12-13,21,16,10,18,13,9,93,85,79,30.16,30.02,29.96,10,9,3,15,7,25,0.00,3,Snow,64
2013-12-14,15,9,3,10,6,0,86,82,73,30.20,30.15,30.10,10,9,4,18,9,22,0.00,6,Snow,329
2013-12-15,12,9,6,9,5,1,85,79,67,30.10,30.03,29.97,10,10,5,9,4,,0.00,6,Snow,93
2013-12-16,26,16,6,23,13,1,93,82,74,30.08,29.99,29.91,10,10,5,17,6,24,0.00,1,,240
2013-12-17,30,24,17,27,19,12,93,77,60,30.20,30.13,30.03,10,10,7,22,11,29,0.00,2,,278
2013-12-18,42,32,21,32,24,12,81,72,57,30.02,29.77,29.68,10,10,10,13,8,,0.00,0,,212
2013-12-19,33,24,14,27,13,9,86,79,70,29.95,29.88,29.78,10,10,7,17,11,23,0.00,4,Snow,34
2013-12-20,15,12,10,10,9,5,86,82,73,29.96,29.91,29.84,10,7,2,13,8,17,0.00,8,Snow,335
2013-12-21,21,16,12,18,12,9,93,83,68,29.90,29.85,29.78,10,10,10,14,4,20,0.00,4,,35
2013-12-22,14,6,-2,9,1,-9,85,76,67,30.34,30.11,29.91,10,10,10,17,11,24,0.00,4,,326
2013-12-23,1,-5,-11,-9,-16,-18,78,64,43,30.52,30.46,30.35,10,10,10,20,10,23,0.00,0,,303
2013-12-24,19,5,-9,16,1,-18,86,71,55,30.45,30.18,30.04,10,9,2,25,9,39,0.00,5,Snow,179
2013-12-25,33,25,17,28,18,12,93,82,64,30.22,30.15,30.07,10,10,7,31,9,38,0.00,5,Snow,264
2013-12-26,41,31,21,27,21,16,86,76,49,30.19,30.10,30.04,10,10,10,15,7,,0.00,3,,252
2013-12-27,48,32,17,30,25,16,93,75,46,30.18,30.08,30.00,10,10,10,18,6,21,0.00,0,,224
2013-12-28,57,32,6,30,22,1,86,69,26,30.13,29.86,29.67,10,9,4,29,11,38,0.00,2,Snow,227
2013-12-29,6,0,-5,1,-13,-20,79,55,39,30.37,30.28,30.14,10,10,7,25,16,33,0.00,2,,336
2013-12-30,17,8,0,12,0,-11,86,71,48,30.22,30.11,29.98,10,9,2,18,7,24,0.00,5,Snow,202
2013-12-31,10,6,1,3,0,-4,85,77,72,30.23,30.18,30.12,10,10,3,16,7,23,0.00,8,Snow,71